Oneida, Tennessee
Current Conditions -  °F | °C
As of 6:56 AM on Friday 19 Dec 2014 (Local Time) from KEKQ Reporting Station
Haze Haze  
Wind Chill: 29°   Ceiling: 6000
Heat Index: 29°   Visibility: 5mi
Dew Point: 26°   Wind: 0mph
Humidity: 88%   Direction: NA
Pressure: 30.27"   Gusts: NA
Location:  36.5°N, 84.51°W
Report Text: KEKQ 191156Z AUTO 00000KT 5SM BR BKN060 M02/M03 A3027 RMK AO2 53013 T10161033 10011 21016 SLP262
Loading
Personal Weather Stations






























Interactive Weather Map New forecast layout! Learn more

10-Day Weather Forecast

Advertisements
Track Severe Weather on mobile